Milbridge, Maine
Current Conditions -  °F | °C
As of 11:35 AM on Thursday 23 Oct 2014 (Local Time) from KBHB Reporting Station
Overcast Overcast  
Wind Chill: 52°   Ceiling: 1000
Heat Index: 52°   Visibility: 5mi
Dew Point: 52°   Wind: 17mph
Humidity: 100%   Direction: 40°NE
Pressure: 29.84"   Gusts: 30mph
Location:  44.53°N, 67.9°W
Report Text: KBHB 231535Z AUTO 04015G26KT 5SM OVC010 11/11 A2984 RMK AO1 P0006
Loading
Personal Weather Stations






























Interactive Weather Map
Tropical Storm Tracking
New forecast layout! Learn more

10-Day Weather Forecast

Advertisements
Track Severe Weather on mobile